sensor_id;sensor_type;location;lat;lon;timestamp;P1;durP1;ratioP1;P2;durP2;ratioP2
8982;SDS011;20979;59.850;10.660;2023-12-20T00:00:00;10.17;;;5.90;;
8982;SDS011;20979;59.850;10.660;2023-12-20T00:02:29;9.83;;;5.70;;
8982;SDS011;20979;59.850;10.660;2023-12-20T00:04:56;9.60;;;5.53;;
8982;SDS011;20979;59.850;10.660;2023-12-20T00:07:24;9.50;;;5.40;;
8982;SDS011;20979;59.850;10.660;2023-12-20T00:09:51;6.90;;;4.53;;
8982;SDS011;20979;59.850;10.660;2023-12-20T00:12:19;8.67;;;4.67;;
8982;SDS011;20979;59.850;10.660;2023-12-20T00:14:46;8.40;;;4.73;;
8982;SDS011;20979;59.850;10.660;2023-12-20T00:17:13;7.23;;;4.53;;
8982;SDS011;20979;59.850;10.660;2023-12-20T00:19:42;8.00;;;4.50;;
8982;SDS011;20979;59.850;10.660;2023-12-20T00:22:10;7.60;;;4.40;;
8982;SDS011;20979;59.850;10.660;2023-12-20T00:24:37;10.93;;;5.07;;
8982;SDS011;20979;59.850;10.660;2023-12-20T00:27:04;6.43;;;4.40;;
8982;SDS011;20979;59.850;10.660;2023-12-20T00:29:32;7.33;;;5.03;;
8982;SDS011;20979;59.850;10.660;2023-12-20T00:31:59;10.40;;;5.10;;
8982;SDS011;20979;59.850;10.660;2023-12-20T00:34:26;7.67;;;5.10;;
8982;SDS011;20979;59.850;10.660;2023-12-20T00:36:55;8.13;;;4.70;;
8982;SDS011;20979;59.850;10.660;2023-12-20T00:39:23;8.10;;;4.47;;
8982;SDS011;20979;59.850;10.660;2023-12-20T00:41:50;6.00;;;4.13;;
8982;SDS011;20979;59.850;10.660;2023-12-20T00:44:17;7.10;;;4.27;;
8982;SDS011;20979;59.850;10.660;2023-12-20T00:46:45;7.03;;;5.20;;
8982;SDS011;20979;59.850;10.660;2023-12-20T00:49:12;9.23;;;4.87;;
8982;SDS011;20979;59.850;10.660;2023-12-20T00:51:40;6.87;;;4.83;;
8982;SDS011;20979;59.850;10.660;2023-12-20T00:54:09;7.47;;;4.40;;
8982;SDS011;20979;59.850;10.660;2023-12-20T00:56:36;7.73;;;4.70;;
8982;SDS011;20979;59.850;10.660;2023-12-20T00:59:03;9.23;;;4.87;;
8982;SDS011;20979;59.850;10.660;2023-12-20T01:01:31;7.10;;;4.40;;
8982;SDS011;20979;59.850;10.660;2023-12-20T01:03:59;7.70;;;4.53;;
8982;SDS011;20979;59.850;10.660;2023-12-20T01:06:26;7.77;;;4.60;;
8982;SDS011;20979;59.850;10.660;2023-12-20T01:08:53;8.07;;;4.60;;
8982;SDS011;20979;59.850;10.660;2023-12-20T01:11:22;8.70;;;4.70;;
8982;SDS011;20979;59.850;10.660;2023-12-20T01:13:50;7.13;;;4.07;;
8982;SDS011;20979;59.850;10.660;2023-12-20T01:16:17;7.50;;;4.60;;
8982;SDS011;20979;59.850;10.660;2023-12-20T01:18:44;6.13;;;4.20;;
8982;SDS011;20979;59.850;10.660;2023-12-20T01:21:12;7.03;;;4.40;;
8982;SDS011;20979;59.850;10.660;2023-12-20T01:23:38;7.57;;;4.47;;
8982;SDS011;20979;59.850;10.660;2023-12-20T01:26:06;8.77;;;4.53;;
8982;SDS011;20979;59.850;10.660;2023-12-20T01:28:35;5.87;;;4.43;;
8982;SDS011;20979;59.850;10.660;2023-12-20T01:31:02;6.47;;;4.33;;
8982;SDS011;20979;59.850;10.660;2023-12-20T01:33:30;6.20;;;4.17;;
8982;SDS011;20979;59.850;10.660;2023-12-20T01:35:57;7.13;;;4.60;;
8982;SDS011;20979;59.850;10.660;2023-12-20T01:38:25;7.53;;;4.23;;
8982;SDS011;20979;59.850;10.660;2023-12-20T01:40:52;4.93;;;4.17;;
8982;SDS011;20979;59.850;10.660;2023-12-20T01:43:19;6.63;;;4.33;;
8982;SDS011;20979;59.850;10.660;2023-12-20T01:45:48;9.20;;;4.73;;
8982;SDS011;20979;59.850;10.660;2023-12-20T01:48:16;6.93;;;4.63;;
8982;SDS011;20979;59.850;10.660;2023-12-20T01:50:43;10.50;;;4.10;;
8982;SDS011;20979;59.850;10.660;2023-12-20T01:53:12;6.07;;;4.20;;
8982;SDS011;20979;59.850;10.660;2023-12-20T01:55:40;7.13;;;4.17;;
8982;SDS011;20979;59.850;10.660;2023-12-20T01:58:07;6.00;;;4.13;;
8982;SDS011;20979;59.850;10.660;2023-12-20T02:00:36;6.63;;;4.00;;
8982;SDS011;20979;59.850;10.660;2023-12-20T02:03:05;8.73;;;4.17;;
8982;SDS011;20979;59.850;10.660;2023-12-20T02:05:33;6.03;;;3.80;;
8982;SDS011;20979;59.850;10.660;2023-12-20T02:08:01;6.20;;;4.10;;
8982;SDS011;20979;59.850;10.660;2023-12-20T02:10:28;8.17;;;4.70;;
8982;SDS011;20979;59.850;10.660;2023-12-20T02:12:57;7.73;;;4.07;;
8982;SDS011;20979;59.850;10.660;2023-12-20T02:15:24;6.00;;;3.80;;
8982;SDS011;20979;59.850;10.660;2023-12-20T02:17:52;8.67;;;4.20;;
8982;SDS011;20979;59.850;10.660;2023-12-20T02:20:21;6.57;;;4.10;;
8982;SDS011;20979;59.850;10.660;2023-12-20T02:22:49;9.80;;;4.40;;
8982;SDS011;20979;59.850;10.660;2023-12-20T02:25:17;7.93;;;4.37;;
8982;SDS011;20979;59.850;10.660;2023-12-20T02:27:44;5.53;;;4.07;;
8982;SDS011;20979;59.850;10.660;2023-12-20T02:30:12;5.20;;;3.60;;
8982;SDS011;20979;59.850;10.660;2023-12-20T02:32:39;7.53;;;3.73;;
8982;SDS011;20979;59.850;10.660;2023-12-20T02:35:06;6.40;;;4.53;;
8982;SDS011;20979;59.850;10.660;2023-12-20T02:37:34;14.73;;;5.33;;
8982;SDS011;20979;59.850;10.660;2023-12-20T02:40:03;7.23;;;4.37;;
8982;SDS011;20979;59.850;10.660;2023-12-20T02:42:30;7.73;;;4.70;;
8982;SDS011;20979;59.850;10.660;2023-12-20T02:44:58;9.07;;;5.07;;
8982;SDS011;20979;59.850;10.660;2023-12-20T02:47:25;7.77;;;4.60;;
8982;SDS011;20979;59.850;10.660;2023-12-20T02:49:54;9.90;;;5.07;;
8982;SDS011;20979;59.850;10.660;2023-12-20T02:52:22;8.30;;;5.50;;
8982;SDS011;20979;59.850;10.660;2023-12-20T02:54:49;10.20;;;5.67;;
8982;SDS011;20979;59.850;10.660;2023-12-20T02:57:18;8.93;;;5.13;;
8982;SDS011;20979;59.850;10.660;2023-12-20T02:59:45;7.23;;;4.80;;
8982;SDS011;20979;59.850;10.660;2023-12-20T03:02:13;6.83;;;4.67;;
8982;SDS011;20979;59.850;10.660;2023-12-20T03:04:40;8.70;;;5.00;;
8982;SDS011;20979;59.850;10.660;2023-12-20T03:07:08;8.87;;;4.33;;
8982;SDS011;20979;59.850;10.660;2023-12-20T03:09:37;8.33;;;4.30;;
8982;SDS011;20979;59.850;10.660;2023-12-20T03:12:04;5.20;;;4.20;;
8982;SDS011;20979;59.850;10.660;2023-12-20T03:14:33;9.23;;;4.43;;
8982;SDS011;20979;59.850;10.660;2023-12-20T03:17:00;9.63;;;4.47;;
8982;SDS011;20979;59.850;10.660;2023-12-20T03:19:28;7.13;;;4.40;;
8982;SDS011;20979;59.850;10.660;2023-12-20T03:21:55;8.43;;;4.37;;
8982;SDS011;20979;59.850;10.660;2023-12-20T03:24:26;6.90;;;4.33;;
8982;SDS011;20979;59.850;10.660;2023-12-20T03:26:53;6.93;;;4.03;;
8982;SDS011;20979;59.850;10.660;2023-12-20T03:29:22;5.80;;;4.03;;
8982;SDS011;20979;59.850;10.660;2023-12-20T03:31:51;7.33;;;4.50;;
8982;SDS011;20979;59.850;10.660;2023-12-20T03:34:18;6.37;;;4.23;;
8982;SDS011;20979;59.850;10.660;2023-12-20T03:36:46;7.07;;;4.10;;
8982;SDS011;20979;59.850;10.660;2023-12-20T03:39:13;6.73;;;4.20;;
8982;SDS011;20979;59.850;10.660;2023-12-20T03:41:41;6.77;;;4.40;;
8982;SDS011;20979;59.850;10.660;2023-12-20T03:44:08;5.67;;;4.00;;
8982;SDS011;20979;59.850;10.660;2023-12-20T03:46:35;5.40;;;3.90;;
8982;SDS011;20979;59.850;10.660;2023-12-20T03:49:04;8.50;;;4.30;;
8982;SDS011;20979;59.850;10.660;2023-12-20T03:51:32;6.80;;;4.30;;
8982;SDS011;20979;59.850;10.660;2023-12-20T03:53:59;5.97;;;3.97;;
8982;SDS011;20979;59.850;10.660;2023-12-20T03:56:26;6.90;;;3.90;;
8982;SDS011;20979;59.850;10.660;2023-12-20T03:58:54;6.43;;;3.83;;
8982;SDS011;20979;59.850;10.660;2023-12-20T04:01:21;6.77;;;4.43;;
8982;SDS011;20979;59.850;10.660;2023-12-20T04:03:48;7.93;;;4.43;;
8982;SDS011;20979;59.850;10.660;2023-12-20T04:06:18;8.37;;;4.53;;
8982;SDS011;20979;59.850;10.660;2023-12-20T04:08:45;5.13;;;4.03;;
8982;SDS011;20979;59.850;10.660;2023-12-20T04:11:12;6.53;;;4.23;;
8982;SDS011;20979;59.850;10.660;2023-12-20T04:13:40;6.47;;;4.40;;
8982;SDS011;20979;59.850;10.660;2023-12-20T04:16:07;7.70;;;4.57;;
8982;SDS011;20979;59.850;10.660;2023-12-20T04:18:34;8.20;;;4.40;;
8982;SDS011;20979;59.850;10.660;2023-12-20T04:21:02;6.83;;;4.43;;
8982;SDS011;20979;59.850;10.660;2023-12-20T04:23:31;8.23;;;4.37;;
8982;SDS011;20979;59.850;10.660;2023-12-20T04:25:58;7.43;;;5.03;;
8982;SDS011;20979;59.850;10.660;2023-12-20T04:28:26;8.97;;;4.90;;
8982;SDS011;20979;59.850;10.660;2023-12-20T04:30:55;8.53;;;4.63;;
8982;SDS011;20979;59.850;10.660;2023-12-20T04:33:22;6.53;;;4.43;;
8982;SDS011;20979;59.850;10.660;2023-12-20T04:35:50;7.17;;;4.70;;
8982;SDS011;20979;59.850;10.660;2023-12-20T04:38:18;8.63;;;4.83;;
8982;SDS011;20979;59.850;10.660;2023-12-20T04:40:46;8.83;;;5.13;;
8982;SDS011;20979;59.850;10.660;2023-12-20T04:43:14;7.97;;;5.03;;
8982;SDS011;20979;59.850;10.660;2023-12-20T04:45:41;7.70;;;4.50;;
8982;SDS011;20979;59.850;10.660;2023-12-20T04:48:09;8.53;;;4.20;;
8982;SDS011;20979;59.850;10.660;2023-12-20T04:50:36;5.27;;;4.30;;
8982;SDS011;20979;59.850;10.660;2023-12-20T04:53:03;7.80;;;4.43;;
8982;SDS011;20979;59.850;10.660;2023-12-20T04:55:31;5.60;;;4.30;;
8982;SDS011;20979;59.850;10.660;2023-12-20T04:58:00;5.83;;;4.40;;
8982;SDS011;20979;59.850;10.660;2023-12-20T05:00:27;6.57;;;4.20;;
8982;SDS011;20979;59.850;10.660;2023-12-20T05:02:55;7.37;;;4.20;;
8982;SDS011;20979;59.850;10.660;2023-12-20T05:05:23;8.53;;;4.40;;
8982;SDS011;20979;59.850;10.660;2023-12-20T05:07:50;6.87;;;4.00;;
8982;SDS011;20979;59.850;10.660;2023-12-20T05:10:18;5.60;;;3.90;;
8982;SDS011;20979;59.850;10.660;2023-12-20T05:12:45;6.93;;;4.00;;
8982;SDS011;20979;59.850;10.660;2023-12-20T05:15:14;7.13;;;4.17;;
8982;SDS011;20979;59.850;10.660;2023-12-20T05:17:43;8.97;;;4.63;;
8982;SDS011;20979;59.850;10.660;2023-12-20T05:20:13;7.33;;;4.63;;
8982;SDS011;20979;59.850;10.660;2023-12-20T05:22:41;7.43;;;4.30;;
8982;SDS011;20979;59.850;10.660;2023-12-20T05:25:09;6.47;;;4.33;;
8982;SDS011;20979;59.850;10.660;2023-12-20T05:27:37;6.00;;;4.17;;
8982;SDS011;20979;59.850;10.660;2023-12-20T05:30:05;5.83;;;4.37;;
8982;SDS011;20979;59.850;10.660;2023-12-20T05:32:34;6.03;;;4.30;;
8982;SDS011;20979;59.850;10.660;2023-12-20T05:35:01;5.30;;;4.30;;
8982;SDS011;20979;59.850;10.660;2023-12-20T05:37:29;6.10;;;4.37;;
8982;SDS011;20979;59.850;10.660;2023-12-20T05:39:56;9.27;;;5.00;;
8982;SDS011;20979;59.850;10.660;2023-12-20T05:42:24;12.20;;;5.20;;
8982;SDS011;20979;59.850;10.660;2023-12-20T05:44:51;8.17;;;5.40;;
8982;SDS011;20979;59.850;10.660;2023-12-20T05:47:19;8.53;;;5.70;;
8982;SDS011;20979;59.850;10.660;2023-12-20T05:49:47;9.73;;;6.03;;
8982;SDS011;20979;59.850;10.660;2023-12-20T05:52:15;8.63;;;5.93;;
8982;SDS011;20979;59.850;10.660;2023-12-20T05:54:43;9.13;;;5.53;;
8982;SDS011;20979;59.850;10.660;2023-12-20T05:57:10;8.10;;;5.30;;
8982;SDS011;20979;59.850;10.660;2023-12-20T05:59:38;8.20;;;5.67;;
8982;SDS011;20979;59.850;10.660;2023-12-20T06:02:05;8.23;;;5.40;;
8982;SDS011;20979;59.850;10.660;2023-12-20T06:04:32;8.83;;;5.93;;
8982;SDS011;20979;59.850;10.660;2023-12-20T06:07:02;9.90;;;6.83;;
8982;SDS011;20979;59.850;10.660;2023-12-20T06:09:29;9.77;;;7.80;;
8982;SDS011;20979;59.850;10.660;2023-12-20T06:11:57;11.23;;;6.97;;
8982;SDS011;20979;59.850;10.660;2023-12-20T06:14:24;7.43;;;6.07;;
8982;SDS011;20979;59.850;10.660;2023-12-20T06:16:51;10.50;;;6.87;;
8982;SDS011;20979;59.850;10.660;2023-12-20T06:19:19;9.83;;;6.37;;
8982;SDS011;20979;59.850;10.660;2023-12-20T06:21:46;8.23;;;5.67;;
8982;SDS011;20979;59.850;10.660;2023-12-20T06:24:15;7.77;;;6.00;;
8982;SDS011;20979;59.850;10.660;2023-12-20T06:26:43;8.83;;;5.50;;
8982;SDS011;20979;59.850;10.660;2023-12-20T06:29:10;11.60;;;4.90;;
8982;SDS011;20979;59.850;10.660;2023-12-20T06:31:37;7.70;;;4.97;;
8982;SDS011;20979;59.850;10.660;2023-12-20T06:34:05;5.97;;;4.50;;
8982;SDS011;20979;59.850;10.660;2023-12-20T06:36:32;7.33;;;4.63;;
8982;SDS011;20979;59.850;10.660;2023-12-20T06:39:00;6.67;;;4.47;;
8982;SDS011;20979;59.850;10.660;2023-12-20T06:41:31;6.93;;;4.27;;
8982;SDS011;20979;59.850;10.660;2023-12-20T06:43:58;9.87;;;4.57;;
8982;SDS011;20979;59.850;10.660;2023-12-20T06:46:26;7.80;;;4.30;;
8982;SDS011;20979;59.850;10.660;2023-12-20T06:48:53;7.50;;;4.27;;
8982;SDS011;20979;59.850;10.660;2023-12-20T06:51:20;6.67;;;4.50;;
8982;SDS011;20979;59.850;10.660;2023-12-20T06:53:50;6.83;;;4.53;;
8982;SDS011;20979;59.850;10.660;2023-12-20T06:56:18;6.80;;;4.47;;
8982;SDS011;20979;59.850;10.660;2023-12-20T06:58:46;5.10;;;4.17;;
8982;SDS011;20979;59.850;10.660;2023-12-20T07:01:14;7.30;;;4.40;;
8982;SDS011;20979;59.850;10.660;2023-12-20T07:03:42;9.50;;;4.63;;
8982;SDS011;20979;59.850;10.660;2023-12-20T07:06:10;8.53;;;4.30;;
8982;SDS011;20979;59.850;10.660;2023-12-20T07:08:39;6.10;;;4.97;;
8982;SDS011;20979;59.850;10.660;2023-12-20T07:11:07;6.47;;;4.27;;
8982;SDS011;20979;59.850;10.660;2023-12-20T07:13:34;6.23;;;4.40;;
8982;SDS011;20979;59.850;10.660;2023-12-20T07:16:03;7.37;;;4.83;;
8982;SDS011;20979;59.850;10.660;2023-12-20T07:18:31;7.70;;;4.40;;
8982;SDS011;20979;59.850;10.660;2023-12-20T07:20:58;6.47;;;4.77;;
8982;SDS011;20979;59.850;10.660;2023-12-20T07:23:25;6.03;;;4.23;;
8982;SDS011;20979;59.850;10.660;2023-12-20T07:25:53;6.80;;;4.70;;
8982;SDS011;20979;59.850;10.660;2023-12-20T07:28:20;6.40;;;4.30;;
8982;SDS011;20979;59.850;10.660;2023-12-20T07:30:48;7.70;;;4.40;;
8982;SDS011;20979;59.850;10.660;2023-12-20T07:33:16;6.53;;;4.43;;
8982;SDS011;20979;59.850;10.660;2023-12-20T07:35:44;8.70;;;4.67;;
8982;SDS011;20979;59.850;10.660;2023-12-20T07:38:11;5.73;;;4.70;;
8982;SDS011;20979;59.850;10.660;2023-12-20T07:40:41;7.30;;;5.57;;
8982;SDS011;20979;59.850;10.660;2023-12-20T07:43:08;11.27;;;6.57;;
8982;SDS011;20979;59.850;10.660;2023-12-20T07:45:36;11.40;;;6.67;;
8982;SDS011;20979;59.850;10.660;2023-12-20T07:48:03;6.80;;;5.73;;
8982;SDS011;20979;59.850;10.660;2023-12-20T07:50:32;10.40;;;6.10;;
8982;SDS011;20979;59.850;10.660;2023-12-20T07:53:00;7.17;;;5.57;;
8982;SDS011;20979;59.850;10.660;2023-12-20T07:55:28;8.40;;;5.87;;
8982;SDS011;20979;59.850;10.660;2023-12-20T07:57:57;7.97;;;5.37;;
8982;SDS011;20979;59.850;10.660;2023-12-20T08:00:24;6.83;;;5.70;;
8982;SDS011;20979;59.850;10.660;2023-12-20T08:02:52;9.97;;;5.60;;
8982;SDS011;20979;59.850;10.660;2023-12-20T08:05:19;9.30;;;5.60;;
8982;SDS011;20979;59.850;10.660;2023-12-20T08:07:48;7.90;;;5.40;;
8982;SDS011;20979;59.850;10.660;2023-12-20T08:10:16;7.63;;;5.33;;
8982;SDS011;20979;59.850;10.660;2023-12-20T08:12:44;8.87;;;5.07;;
8982;SDS011;20979;59.850;10.660;2023-12-20T08:15:11;7.93;;;4.83;;
8982;SDS011;20979;59.850;10.660;2023-12-20T08:17:39;6.93;;;5.40;;
8982;SDS011;20979;59.850;10.660;2023-12-20T08:20:07;8.57;;;6.50;;
8982;SDS011;20979;59.850;10.660;2023-12-20T08:22:35;7.83;;;5.93;;
8982;SDS011;20979;59.850;10.660;2023-12-20T08:25:04;8.90;;;5.30;;
8982;SDS011;20979;59.850;10.660;2023-12-20T08:27:31;7.17;;;5.60;;
8982;SDS011;20979;59.850;10.660;2023-12-20T08:29:59;11.33;;;5.43;;
8982;SDS011;20979;59.850;10.660;2023-12-20T08:32:26;6.87;;;5.43;;
8982;SDS011;20979;59.850;10.660;2023-12-20T08:34:53;8.43;;;6.37;;
8982;SDS011;20979;59.850;10.660;2023-12-20T08:37:21;10.60;;;6.40;;
8982;SDS011;20979;59.850;10.660;2023-12-20T08:39:48;9.47;;;5.30;;
8982;SDS011;20979;59.850;10.660;2023-12-20T08:42:17;6.90;;;5.23;;
8982;SDS011;20979;59.850;10.660;2023-12-20T08:44:45;9.10;;;5.73;;
8982;SDS011;20979;59.850;10.660;2023-12-20T08:47:12;9.10;;;5.40;;
8982;SDS011;20979;59.850;10.660;2023-12-20T08:49:41;7.17;;;5.47;;
8982;SDS011;20979;59.850;10.660;2023-12-20T08:52:08;9.93;;;5.20;;
8982;SDS011;20979;59.850;10.660;2023-12-20T08:54:36;8.57;;;5.50;;
8982;SDS011;20979;59.850;10.660;2023-12-20T08:57:03;8.37;;;5.77;;
8982;SDS011;20979;59.850;10.660;2023-12-20T08:59:33;7.50;;;5.23;;
8982;SDS011;20979;59.850;10.660;2023-12-20T09:02:00;7.80;;;5.40;;
8982;SDS011;20979;59.850;10.660;2023-12-20T09:04:28;9.53;;;5.93;;
8982;SDS011;20979;59.850;10.660;2023-12-20T09:06:55;10.20;;;5.83;;
8982;SDS011;20979;59.850;10.660;2023-12-20T09:09:23;7.77;;;5.63;;
8982;SDS011;20979;59.850;10.660;2023-12-20T09:11:50;8.57;;;5.60;;
8982;SDS011;20979;59.850;10.660;2023-12-20T09:14:17;10.80;;;6.67;;
8982;SDS011;20979;59.850;10.660;2023-12-20T09:16:46;10.43;;;7.33;;
8982;SDS011;20979;59.850;10.660;2023-12-20T09:19:16;12.93;;;7.93;;
8982;SDS011;20979;59.850;10.660;2023-12-20T09:21:43;12.53;;;6.87;;
8982;SDS011;20979;59.850;10.660;2023-12-20T09:24:11;10.30;;;6.43;;
8982;SDS011;20979;59.850;10.660;2023-12-20T09:26:38;7.10;;;5.37;;
8982;SDS011;20979;59.850;10.660;2023-12-20T09:29:07;7.57;;;5.87;;
8982;SDS011;20979;59.850;10.660;2023-12-20T09:31:40;9.43;;;5.90;;
8982;SDS011;20979;59.850;10.660;2023-12-20T09:34:10;8.57;;;5.40;;
8982;SDS011;20979;59.850;10.660;2023-12-20T09:36:37;5.70;;;4.10;;
8982;SDS011;20979;59.850;10.660;2023-12-20T09:39:11;6.07;;;4.00;;
8982;SDS011;20979;59.850;10.660;2023-12-20T09:41:40;8.00;;;4.07;;
8982;SDS011;20979;59.850;10.660;2023-12-20T09:44:10;5.37;;;4.27;;
8982;SDS011;20979;59.850;10.660;2023-12-20T09:46:40;7.93;;;4.23;;
8982;SDS011;20979;59.850;10.660;2023-12-20T09:49:10;8.60;;;5.10;;
8982;SDS011;20979;59.850;10.660;2023-12-20T09:51:38;7.63;;;5.00;;
8982;SDS011;20979;59.850;10.660;2023-12-20T09:54:06;9.50;;;5.00;;
8982;SDS011;20979;59.850;10.660;2023-12-20T09:56:34;8.43;;;4.67;;
8982;SDS011;20979;59.850;10.660;2023-12-20T09:59:02;6.07;;;4.30;;
8982;SDS011;20979;59.850;10.660;2023-12-20T10:01:29;10.03;;;5.50;;
8982;SDS011;20979;59.850;10.660;2023-12-20T10:03:57;9.50;;;6.43;;
8982;SDS011;20979;59.850;10.660;2023-12-20T10:06:26;9.43;;;6.37;;
8982;SDS011;20979;59.850;10.660;2023-12-20T10:08:54;11.03;;;4.53;;
8982;SDS011;20979;59.850;10.660;2023-12-20T10:11:21;7.07;;;4.50;;
8982;SDS011;20979;59.850;10.660;2023-12-20T10:13:49;8.30;;;4.27;;
8982;SDS011;20979;59.850;10.660;2023-12-20T10:16:16;9.53;;;4.80;;
8982;SDS011;20979;59.850;10.660;2023-12-20T10:18:44;5.07;;;4.07;;
8982;SDS011;20979;59.850;10.660;2023-12-20T10:21:12;9.90;;;4.40;;
8982;SDS011;20979;59.850;10.660;2023-12-20T10:23:41;5.60;;;3.97;;
8982;SDS011;20979;59.850;10.660;2023-12-20T10:26:09;7.03;;;4.40;;
8982;SDS011;20979;59.850;10.660;2023-12-20T10:28:37;9.43;;;5.10;;
8982;SDS011;20979;59.850;10.660;2023-12-20T10:31:06;6.73;;;5.10;;
8982;SDS011;20979;59.850;10.660;2023-12-20T10:33:33;9.50;;;5.57;;
8982;SDS011;20979;59.850;10.660;2023-12-20T10:36:00;11.67;;;6.80;;
8982;SDS011;20979;59.850;10.660;2023-12-20T10:38:28;8.60;;;5.50;;
8982;SDS011;20979;59.850;10.660;2023-12-20T10:40:57;6.07;;;5.10;;
8982;SDS011;20979;59.850;10.660;2023-12-20T10:43:25;11.90;;;6.40;;
8982;SDS011;20979;59.850;10.660;2023-12-20T10:45:53;16.23;;;8.30;;
8982;SDS011;20979;59.850;10.660;2023-12-20T10:48:21;13.97;;;8.33;;
8982;SDS011;20979;59.850;10.660;2023-12-20T10:50:54;11.00;;;7.27;;
8982;SDS011;20979;59.850;10.660;2023-12-20T10:53:23;13.30;;;7.27;;
8982;SDS011;20979;59.850;10.660;2023-12-20T10:55:51;11.40;;;7.00;;
8982;SDS011;20979;59.850;10.660;2023-12-20T10:58:21;13.00;;;8.40;;
8982;SDS011;20979;59.850;10.660;2023-12-20T11:00:49;17.57;;;10.80;;
8982;SDS011;20979;59.850;10.660;2023-12-20T11:03:17;9.50;;;6.33;;
8982;SDS011;20979;59.850;10.660;2023-12-20T11:05:46;21.53;;;14.60;;
8982;SDS011;20979;59.850;10.660;2023-12-20T11:08:17;12.73;;;7.70;;
8982;SDS011;20979;59.850;10.660;2023-12-20T11:10:48;7.40;;;5.23;;
8982;SDS011;20979;59.850;10.660;2023-12-20T11:13:17;9.17;;;5.10;;
8982;SDS011;20979;59.850;10.660;2023-12-20T11:15:46;8.17;;;4.83;;
8982;SDS011;20979;59.850;10.660;2023-12-20T11:18:13;7.63;;;4.63;;
8982;SDS011;20979;59.850;10.660;2023-12-20T11:20:42;7.40;;;4.73;;
8982;SDS011;20979;59.850;10.660;2023-12-20T11:23:09;8.10;;;4.90;;
8982;SDS011;20979;59.850;10.660;2023-12-20T11:25:50;6.73;;;4.50;;
8982;SDS011;20979;59.850;10.660;2023-12-20T11:28:20;6.40;;;4.40;;
8982;SDS011;20979;59.850;10.660;2023-12-20T11:30:50;5.13;;;4.03;;
8982;SDS011;20979;59.850;10.660;2023-12-20T11:33:21;7.03;;;3.87;;
8982;SDS011;20979;59.850;10.660;2023-12-20T11:35:48;5.83;;;4.07;;
8982;SDS011;20979;59.850;10.660;2023-12-20T11:38:16;5.03;;;3.47;;
8982;SDS011;20979;59.850;10.660;2023-12-20T11:40:43;7.13;;;3.87;;
8982;SDS011;20979;59.850;10.660;2023-12-20T11:43:11;4.47;;;3.63;;
8982;SDS011;20979;59.850;10.660;2023-12-20T11:45:38;5.30;;;3.30;;
8982;SDS011;20979;59.850;10.660;2023-12-20T11:48:18;4.13;;;2.97;;
8982;SDS011;20979;59.850;10.660;2023-12-20T11:50:45;2.80;;;2.60;;
8982;SDS011;20979;59.850;10.660;2023-12-20T11:53:13;3.40;;;2.97;;
8982;SDS011;20979;59.850;10.660;2023-12-20T11:55:40;4.10;;;2.80;;
8982;SDS011;20979;59.850;10.660;2023-12-20T11:58:08;3.70;;;2.70;;
8982;SDS011;20979;59.850;10.660;2023-12-20T12:00:35;2.77;;;2.57;;
8982;SDS011;20979;59.850;10.660;2023-12-20T12:03:03;4.53;;;3.00;;
8982;SDS011;20979;59.850;10.660;2023-12-20T12:05:32;3.87;;;2.60;;
8982;SDS011;20979;59.850;10.660;2023-12-20T12:07:59;3.73;;;2.80;;
8982;SDS011;20979;59.850;10.660;2023-12-20T12:10:26;3.63;;;2.90;;
8982;SDS011;20979;59.850;10.660;2023-12-20T12:12:54;3.20;;;2.40;;
8982;SDS011;20979;59.850;10.660;2023-12-20T12:15:21;2.97;;;2.50;;
8982;SDS011;20979;59.850;10.660;2023-12-20T12:17:55;2.10;;;1.90;;
8982;SDS011;20979;59.850;10.660;2023-12-20T12:20:24;2.57;;;2.00;;
8982;SDS011;20979;59.850;10.660;2023-12-20T12:22:59;2.93;;;1.80;;
8982;SDS011;20979;59.850;10.660;2023-12-20T12:25:28;2.27;;;2.07;;
8982;SDS011;20979;59.850;10.660;2023-12-20T12:27:56;3.20;;;2.13;;
8982;SDS011;20979;59.850;10.660;2023-12-20T12:30:24;2.33;;;1.90;;
8982;SDS011;20979;59.850;10.660;2023-12-20T12:32:52;1.70;;;1.60;;
8982;SDS011;20979;59.850;10.660;2023-12-20T12:35:20;2.70;;;1.97;;
8982;SDS011;20979;59.850;10.660;2023-12-20T12:37:47;2.97;;;1.83;;
8982;SDS011;20979;59.850;10.660;2023-12-20T12:40:17;2.33;;;1.77;;
8982;SDS011;20979;59.850;10.660;2023-12-20T12:42:45;1.80;;;1.70;;
8982;SDS011;20979;59.850;10.660;2023-12-20T12:45:12;2.10;;;1.90;;
8982;SDS011;20979;59.850;10.660;2023-12-20T12:47:40;2.63;;;2.10;;
8982;SDS011;20979;59.850;10.660;2023-12-20T12:50:08;4.80;;;2.77;;
8982;SDS011;20979;59.850;10.660;2023-12-20T12:52:35;3.97;;;3.13;;
8982;SDS011;20979;59.850;10.660;2023-12-20T12:55:03;3.17;;;2.60;;
8982;SDS011;20979;59.850;10.660;2023-12-20T12:57:32;2.60;;;2.40;;
8982;SDS011;20979;59.850;10.660;2023-12-20T12:59:59;2.73;;;2.50;;
8982;SDS011;20979;59.850;10.660;2023-12-20T13:02:28;2.70;;;2.47;;
8982;SDS011;20979;59.850;10.660;2023-12-20T13:04:55;2.87;;;2.30;;
8982;SDS011;20979;59.850;10.660;2023-12-20T13:07:23;3.20;;;2.50;;
8982;SDS011;20979;59.850;10.660;2023-12-20T13:09:50;3.80;;;3.13;;
8982;SDS011;20979;59.850;10.660;2023-12-20T13:12:18;4.77;;;3.53;;
8982;SDS011;20979;59.850;10.660;2023-12-20T13:14:48;6.00;;;3.40;;
8982;SDS011;20979;59.850;10.660;2023-12-20T13:17:15;15.40;;;5.43;;
8982;SDS011;20979;59.850;10.660;2023-12-20T13:19:42;8.83;;;4.73;;
8982;SDS011;20979;59.850;10.660;2023-12-20T13:22:10;4.13;;;3.10;;
8982;SDS011;20979;59.850;10.660;2023-12-20T13:24:37;5.23;;;3.03;;
8982;SDS011;20979;59.850;10.660;2023-12-20T13:27:05;2.63;;;2.20;;
8982;SDS011;20979;59.850;10.660;2023-12-20T13:29:33;2.90;;;2.30;;
8982;SDS011;20979;59.850;10.660;2023-12-20T13:32:01;3.30;;;2.53;;
8982;SDS011;20979;59.850;10.660;2023-12-20T13:34:29;4.83;;;2.80;;
8982;SDS011;20979;59.850;10.660;2023-12-20T13:36:56;5.30;;;3.00;;
8982;SDS011;20979;59.850;10.660;2023-12-20T13:39:23;7.63;;;4.03;;
8982;SDS011;20979;59.850;10.660;2023-12-20T13:41:51;7.23;;;3.57;;
8982;SDS011;20979;59.850;10.660;2023-12-20T13:44:18;7.00;;;3.90;;
8982;SDS011;20979;59.850;10.660;2023-12-20T13:46:45;8.97;;;4.27;;
8982;SDS011;20979;59.850;10.660;2023-12-20T13:49:16;3.53;;;2.67;;
8982;SDS011;20979;59.850;10.660;2023-12-20T13:51:43;3.47;;;2.57;;
8982;SDS011;20979;59.850;10.660;2023-12-20T13:54:12;4.87;;;2.00;;
8982;SDS011;20979;59.850;10.660;2023-12-20T13:56:39;2.17;;;1.83;;
8982;SDS011;20979;59.850;10.660;2023-12-20T13:59:06;1.93;;;1.73;;
8982;SDS011;20979;59.850;10.660;2023-12-20T14:01:34;1.60;;;1.50;;
8982;SDS011;20979;59.850;10.660;2023-12-20T14:04:01;2.20;;;1.60;;
8982;SDS011;20979;59.850;10.660;2023-12-20T14:06:30;2.07;;;1.83;;
8982;SDS011;20979;59.850;10.660;2023-12-20T14:08:58;2.20;;;2.00;;
8982;SDS011;20979;59.850;10.660;2023-12-20T14:11:26;2.90;;;2.40;;
8982;SDS011;20979;59.850;10.660;2023-12-20T14:13:53;2.43;;;2.20;;
8982;SDS011;20979;59.850;10.660;2023-12-20T14:16:23;2.60;;;2.40;;
8982;SDS011;20979;59.850;10.660;2023-12-20T14:18:50;3.80;;;2.40;;
8982;SDS011;20979;59.850;10.660;2023-12-20T14:21:22;4.40;;;3.60;;
8982;SDS011;20979;59.850;10.660;2023-12-20T14:23:51;4.47;;;3.10;;
8982;SDS011;20979;59.850;10.660;2023-12-20T14:26:19;3.17;;;2.27;;
8982;SDS011;20979;59.850;10.660;2023-12-20T14:28:46;3.13;;;2.43;;
8982;SDS011;20979;59.850;10.660;2023-12-20T14:31:13;2.27;;;2.07;;
8982;SDS011;20979;59.850;10.660;2023-12-20T14:33:41;2.13;;;2.00;;
8982;SDS011;20979;59.850;10.660;2023-12-20T14:36:08;3.27;;;2.33;;
8982;SDS011;20979;59.850;10.660;2023-12-20T14:38:34;1.97;;;1.87;;
8982;SDS011;20979;59.850;10.660;2023-12-20T14:41:04;2.23;;;1.97;;
8982;SDS011;20979;59.850;10.660;2023-12-20T14:43:33;2.43;;;1.80;;
8982;SDS011;20979;59.850;10.660;2023-12-20T14:46:01;2.37;;;1.63;;
8982;SDS011;20979;59.850;10.660;2023-12-20T14:48:30;2.10;;;1.90;;